• Join FlightAware (Why Join?)
  • Login
  • US Flag 
07:43AM EDT


 

Airport Tracker/Info


-or-


 

Live Flight TrackerFlight Track Log ✈ BJS615 ✈ 29-Apr-2012 ✈ KPDK - KDAL

Flight Track Log - Related Links

Times and Time Zones

All times are in EDT time to prevent confusion due to time zone crossing. See the BJS615 flight status page for this flight to view local times or setup timezone preferences in your user account.

Time Position Orientation Groundspeed Altitude Reporting Facility
EDT Latitude Longitude Course Direction KTS MPH feet Rate Location/Type
09:17AM 33.8500 -84.3333 270° West 176 203 2,700  Level Atlanta TRACON
09:18AM 33.8500 -84.4000 270° West 207 238 4,800 1,140 Climbing Atlanta TRACON
09:19AM 33.8500 -84.4833 256° West 259 298 5,000 120 Climbing Atlanta TRACON
09:20AM 33.8333 -84.5667 268° West 258 297 5,100 1,920 Climbing Atlanta TRACON
09:21AM 33.8300 -84.7114 268° West 275 316 10,100 3,480 Climbing Atlanta Center
09:22AM 33.8272 -84.8089 264° West 286 329 14,200 3,960 Climbing Atlanta Center
09:23AM 33.8183 -84.9114 266° West 307 353 18,100 3,360 Climbing Atlanta Center
09:24AM 33.8111 -85.0264 264° West 335 386 21,000 2,880 Climbing Atlanta Center
09:25AM 33.7997 -85.1486 264° West 362 417 23,900 2,760 Climbing Atlanta Center
09:26AM 33.7881 -85.2861 269° West 376 433 26,500 2,340 Climbing Atlanta Center
09:27AM 33.7864 -85.4211 265° West 387 445 28,600 1,920 Climbing Atlanta Center
09:28AM 33.7767 -85.5583 264° West 401 461 30,400 2,160 Climbing Atlanta Center
09:29AM 33.7644 -85.6931 265° West 411 473 33,000 2,160 Climbing Atlanta Center
09:30AM 33.7567 -85.8003 265° West 411 473 34,800 2,100 Climbing Atlanta Center
09:31AM 33.7464 -85.9300 264° West 388 447 37,200 2,040 Climbing Atlanta Center
09:32AM 33.7361 -86.0547 267° West 381 438 38,900 1,140 Climbing Atlanta Center
09:33AM 33.7297 -86.1794 268° West 375 432 39,500 600 Climbing Atlanta Center
09:34AM 33.7253 -86.3092 267° West 387 445 40,100 720 Climbing Atlanta Center
09:35AM 33.7186 -86.4439 266° West 397 457 41,000 1,020 Climbing Atlanta Center
09:36AM 33.7094 -86.5883 268° West 402 463 42,200 960 Climbing Atlanta Center
09:37AM 33.7047 -86.7181 265° West 402 463 43,000 360 Climbing Atlanta Center
09:38AM 33.6956 -86.8478 266° West 402 463 43,000  Level Atlanta Center
09:40AM 33.6839 -87.0419 266° West 418 481 43,000  Level Memphis Center
09:41AM 33.6769 -87.1722 265° West 413 475 43,000  Level Memphis Center
09:42AM 33.6675 -87.3047 267° West 407 468 43,000  Level Memphis Center
09:43AM 33.6606 -87.4397 267° West 407 468 43,000  Level Memphis Center
09:44AM 33.6533 -87.5847 266° West 407 468 43,000  Level Memphis Center
09:45AM 33.6458 -87.7172 265° West 407 468 43,000  Level Memphis Center
09:46AM 33.6361 -87.8497 264° West 407 468 43,000  Level Memphis Center
09:47AM 33.6239 -87.9822 254° West 407 468 43,000  Level Memphis Center
09:48AM 33.5931 -88.1103 254° West 407 468 43,000  Level Memphis Center
09:49AM 33.5658 -88.2256 253° West 402 463 43,000  Level Memphis Center
09:50AM 33.5344 -88.3511 252° West 402 463 43,000  Level Memphis Center
09:51AM 33.5008 -88.4739 254° West 402 463 43,000  Level Memphis Center
09:52AM 33.4694 -88.6042 252° West 402 463 43,000  Level Memphis Center
09:53AM 33.4356 -88.7292 252° West 402 463 43,000  Level Memphis Center
09:54AM 33.4017 -88.8567 252° West 402 463 43,000  Level Memphis Center
09:55AM 33.3678 -88.9842 254° West 402 463 43,000  Level Memphis Center
09:56AM 33.3358 -89.1139 256° West 402 463 43,000  Level Memphis Center
09:57AM 33.3058 -89.2586 258° West 410 472 43,000  Level Memphis Center
09:58AM 33.2819 -89.3906 257° West 410 472 43,000  Level Memphis Center
09:59AM 33.2556 -89.5225 258° West 415 478 43,000  Level Memphis Center
10:00AM 33.2314 -89.6594 257° West 415 478 43,000  Level Memphis Center
10:01AM 33.2050 -89.7936 258° West 415 478 43,000  Level Memphis Center
10:02AM 33.1806 -89.9278 256° West 415 478 43,000  Level Memphis Center
10:03AM 33.1517 -90.0619 256° West 415 478 43,000  Level Memphis Center
10:04AM 33.1269 -90.1811 257° West 415 478 43,000  Level Memphis Center
10:05AM 33.1019 -90.3125 256° West 415 478 43,000  Level Memphis Center
10:06AM 33.0747 -90.4439 256° West 415 478 43,000  Level Memphis Center
10:07AM 33.0475 -90.5753 257° West 415 478 43,000  Level Memphis Center
10:08AM 33.0222 -90.7067 256° West 415 478 43,000  Level Memphis Center
10:09AM 32.9947 -90.8353 257° West 415 478 43,000  Level Memphis Center
10:10AM 32.9689 -90.9664 256° West 410 472 43,000  Level Memphis Center
10:11AM 32.9411 -91.0975 257° West 415 478 43,000  Level Memphis Center
10:13AM 32.8778 -91.4106 256° West 403 464 43,000  Level Fort Worth Center
10:14AM 32.8506 -91.5383 256° West 408 470 43,000  Level Fort Worth Center
10:15AM 32.8233 -91.6689 256° West 408 470 43,000  Level Fort Worth Center
10:16AM 32.7958 -91.8014 258° West 408 470 43,000  Level Fort Worth Center
10:17AM 32.7722 -91.9289 254° West 403 464 43,000  Level Fort Worth Center
10:18AM 32.7422 -92.0567 257° West 403 464 43,000  Level Fort Worth Center
10:19AM 32.7164 -92.1867 255° West 403 464 43,000  Level Fort Worth Center
10:20AM 32.6864 -92.3167 256° West 403 464 43,000  Level Fort Worth Center
10:21AM 32.6583 -92.4514 255° West 416 479 43,000  Level Fort Worth Center
10:22AM 32.6281 -92.5839 255° West 416 479 43,000  Level Fort Worth Center
10:23AM 32.5994 -92.7111 255° West 416 479 43,000  Level Fort Worth Center
10:24AM 32.5672 -92.8581 255° West 416 479 43,000  Level Fort Worth Center
10:25AM 32.5383 -92.9853 264° West 416 479 43,000  Level Fort Worth Center
10:26AM 32.5264 -93.1214 266° West 416 479 43,000  Level Fort Worth Center
10:27AM 32.5186 -93.2597 268° West 416 479 43,000  Level Fort Worth Center
10:28AM 32.5144 -93.3928 267° West 411 473 43,000  Level Fort Worth Center
10:29AM 32.5083 -93.5286 267° West 411 473 43,000  Level Fort Worth Center
10:30AM 32.5019 -93.6594 266° West 411 473 43,000  Level Fort Worth Center
10:31AM 32.4933 -93.7953 267° West 411 473 43,000  Level Fort Worth Center
10:32AM 32.4867 -93.9311 267° West 411 473 43,000  Level Fort Worth Center
10:33AM 32.4800 -94.0667 267° West 411 473 43,000  Level Fort Worth Center
10:34AM 32.4731 -94.2000 265° West 411 473 43,000  Level Fort Worth Center
10:35AM 32.4639 -94.3356 266° West 406 467 43,000  Level Fort Worth Center
10:36AM 32.4567 -94.4664 266° West 406 467 43,000  Level Fort Worth Center
10:37AM 32.4492 -94.5994 267° West 406 467 43,000  Level Fort Worth Center
10:38AM 32.4439 -94.7350 265° West 406 467 43,000 -900 Level Fort Worth Center
10:39AM 32.4339 -94.8658 270° West 406 467 41,200 -2,220 Descending Fort Worth Center
10:40AM 32.4344 -95.0011 267° West 406 467 38,600 -2,700 Descending Fort Worth Center
10:41AM 32.4286 -95.1294 265° West 400 460 35,900 -2,880 Descending Fort Worth Center
10:42AM 32.4183 -95.2625 266° West 405 466 33,000 -3,060 Descending Fort Worth Center
10:44AM 32.4000 -95.5558 264° West 452 520 26,800 -3,180 Descending Fort Worth Center
10:45AM 32.3875 -95.7011 269° West 459 528 23,600 -2,880 Descending Fort Worth Center
10:46AM 32.3850 -95.8267 289° West 450 518 21,100 -2,880 Descending Fort Worth Center
10:47AM 32.4264 -95.9686 295° West 417 480 17,900 -3,120 Descending Fort Worth Center
10:48AM 32.4714 -96.0811 293° West 393 452 14,900 -2,820 Descending Fort Worth Center
10:49AM 32.5122 -96.1964 294° West 384 442 12,400 -2,640 Descending Fort Worth Center
10:50AM 32.5508 -96.2994 300° West 357 411 9,700 -1,740 Descending Fort Worth Center
10:51AM 32.5933 -96.3875 303° West 329 379 9,000 -960 Descending Fort Worth Center
10:52AM 32.6356 -96.4636 306° West 291 335 7,800 -1,200 Descending Fort Worth Center
10:53AM 32.6822 -96.5397 315° West 285 328 6,600 -1,260 Descending Fort Worth Center
10:54AM 32.7369 -96.6058 322° Northwest 280 322 5,300 -840 Descending Fort Worth Center
10:55AM 32.7978 -96.6622 327° Northwest 280 322 5,000 -420 Descending Fort Worth Center
10:56AM 32.8522 -96.7036 324° Northwest 267 307 4,500 -540 Descending Fort Worth Center
10:57AM 32.9089 -96.7528 315° West 247 284 4,000 -300 Descending Fort Worth Center
10:58AM 32.9425 -96.7922 314° West 209 241 4,000  Level Fort Worth Center
10:59AM 32.9867 -96.8464 264° West 201 231 4,000 -420 Level Fort Worth Center
11:00AM 32.9833 -96.8833 248° West 178 205 3,300 -600 Descending Dallas / Fort Worth TRACON
11:01AM 32.9667 -96.9333 180° South 171 197 3,000 -240 Descending Dallas / Fort Worth TRACON
11:02AM 32.9333 -96.9333 140° Southeast 176 203 2,900 -720 Descending Dallas / Fort Worth TRACON
11:03AM 32.9000 -96.9000 140° Southeast 160 184 1,600 -1,080 Descending Dallas / Fort Worth TRACON
11:04AM 32.8667 -96.8667 140° Southeast 133 153 900 -780 Descending Dallas / Fort Worth TRACON